sensor_id;sensor_type;location;lat;lon;timestamp;pressure;altitude;pressure_sealevel;temperature;humidity
28797;BME280;24974;54.444;18.560;2022-09-17T04:40:51;99518.88;;;11.86;78.53
28797;BME280;24974;54.444;18.560;2022-09-17T04:43:22;99515.19;;;11.94;77.61
28797;BME280;24974;54.444;18.560;2022-09-17T04:45:53;99526.31;;;11.73;78.13
28797;BME280;24974;54.444;18.560;2022-09-17T04:48:24;99526.75;;;12.12;77.17
28797;BME280;24974;54.444;18.560;2022-09-17T04:50:54;99542.50;;;11.87;77.46
28797;BME280;24974;54.444;18.560;2022-09-17T04:53:25;99535.56;;;12.17;76.82
28797;BME280;24974;54.444;18.560;2022-09-17T04:55:56;99545.94;;;11.96;77.42
28797;BME280;24974;54.444;18.560;2022-09-17T04:58:27;99546.78;;;12.24;76.18
28797;BME280;24974;54.444;18.560;2022-09-17T05:01:00;99557.53;;;12.42;75.71
28797;BME280;24974;54.444;18.560;2022-09-17T05:03:31;99545.56;;;12.10;76.53
28797;BME280;24974;54.444;18.560;2022-09-17T05:06:02;99547.72;;;12.56;75.12
28797;BME280;24974;54.444;18.560;2022-09-17T05:08:33;99551.34;;;12.45;75.76
28797;BME280;24974;54.444;18.560;2022-09-17T05:11:04;99546.88;;;12.40;75.93
28797;BME280;24974;54.444;18.560;2022-09-17T05:13:34;99543.16;;;12.48;75.89
28797;BME280;24974;54.444;18.560;2022-09-17T05:16:05;99547.44;;;12.46;75.81
28797;BME280;24974;54.444;18.560;2022-09-17T05:18:36;99550.88;;;12.71;75.23
28797;BME280;24974;54.444;18.560;2022-09-17T05:21:07;99546.50;;;12.98;74.47
28797;BME280;24974;54.444;18.560;2022-09-17T05:23:38;99540.00;;;12.90;74.68
28797;BME280;24974;54.444;18.560;2022-09-17T05:26:09;99543.50;;;13.03;73.95
28797;BME280;24974;54.444;18.560;2022-09-17T05:28:40;99547.13;;;13.07;73.98
28797;BME280;24974;54.444;18.560;2022-09-17T05:31:11;99555.59;;;13.14;73.71
28797;BME280;24974;54.444;18.560;2022-09-17T05:33:42;99549.25;;;13.26;73.34
28797;BME280;24974;54.444;18.560;2022-09-17T05:36:13;99559.56;;;13.29;73.12
28797;BME280;24974;54.444;18.560;2022-09-17T05:38:44;99562.03;;;13.18;73.51
28797;BME280;24974;54.444;18.560;2022-09-17T05:41:14;99560.13;;;13.06;74.01
28797;BME280;24974;54.444;18.560;2022-09-17T05:43:45;99578.19;;;13.32;72.72
28797;BME280;24974;54.444;18.560;2022-09-17T05:46:16;99550.31;;;13.53;72.76
28797;BME280;24974;54.444;18.560;2022-09-17T05:48:47;99570.78;;;13.36;72.92
28797;BME280;24974;54.444;18.560;2022-09-17T05:51:18;99562.69;;;13.59;72.19
28797;BME280;24974;54.444;18.560;2022-09-17T05:53:49;99552.88;;;13.61;71.86
28797;BME280;24974;54.444;18.560;2022-09-17T05:56:20;99580.59;;;13.33;72.54
28797;BME280;24974;54.444;18.560;2022-09-17T05:58:55;99570.59;;;13.29;72.70
28797;BME280;24974;54.444;18.560;2022-09-17T06:01:26;99566.63;;;13.42;72.34
28797;BME280;24974;54.444;18.560;2022-09-17T06:03:57;99581.44;;;13.22;72.81
28797;BME280;24974;54.444;18.560;2022-09-17T06:06:28;99568.56;;;13.41;72.43
28797;BME280;24974;54.444;18.560;2022-09-17T06:09:00;99570.72;;;13.32;72.39
28797;BME280;24974;54.444;18.560;2022-09-17T06:11:31;99591.16;;;13.31;72.36
28797;BME280;24974;54.444;18.560;2022-09-17T06:14:03;99580.06;;;13.43;72.52
28797;BME280;24974;54.444;18.560;2022-09-17T06:16:33;99591.78;;;13.25;72.31
28797;BME280;24974;54.444;18.560;2022-09-17T06:19:04;99602.84;;;13.40;72.30
28797;BME280;24974;54.444;18.560;2022-09-17T06:21:35;99597.75;;;13.27;72.64
28797;BME280;24974;54.444;18.560;2022-09-17T06:24:08;99601.06;;;13.32;72.45
28797;BME280;24974;54.444;18.560;2022-09-17T06:26:39;99604.34;;;13.54;71.65
28797;BME280;24974;54.444;18.560;2022-09-17T06:29:10;99608.19;;;13.33;72.45
28797;BME280;24974;54.444;18.560;2022-09-17T06:31:47;99614.16;;;13.51;71.30
28797;BME280;24974;54.444;18.560;2022-09-17T06:34:18;99604.34;;;13.69;71.46
28797;BME280;24974;54.444;18.560;2022-09-17T06:36:49;99611.16;;;13.72;70.70
28797;BME280;24974;54.444;18.560;2022-09-17T06:39:20;99609.38;;;13.80;71.22
28797;BME280;24974;54.444;18.560;2022-09-17T06:41:51;99609.41;;;14.15;70.04
28797;BME280;24974;54.444;18.560;2022-09-17T06:44:22;99606.84;;;14.06;70.48
28797;BME280;24974;54.444;18.560;2022-09-17T06:46:53;99602.00;;;14.03;70.15
28797;BME280;24974;54.444;18.560;2022-09-17T06:49:24;99618.06;;;14.48;69.11
28797;BME280;24974;54.444;18.560;2022-09-17T06:51:55;99606.47;;;14.78;68.19
28797;BME280;24974;54.444;18.560;2022-09-17T06:54:26;99609.91;;;14.36;69.51
28797;BME280;24974;54.444;18.560;2022-09-17T06:56:57;99596.75;;;14.14;70.35
28797;BME280;24974;54.444;18.560;2022-09-17T06:59:28;99608.19;;;13.96;70.83
28797;BME280;24974;54.444;18.560;2022-09-17T07:01:59;99612.56;;;13.82;71.74
28797;BME280;24974;54.444;18.560;2022-09-17T07:04:30;99615.38;;;14.01;71.38
28797;BME280;24974;54.444;18.560;2022-09-17T07:07:01;99608.78;;;14.06;71.09
28797;BME280;24974;54.444;18.560;2022-09-17T07:09:32;99604.09;;;13.90;71.22
28797;BME280;24974;54.444;18.560;2022-09-17T07:12:07;99608.00;;;14.05;71.27
28797;BME280;24974;54.444;18.560;2022-09-17T07:14:38;99611.97;;;14.59;69.97
28797;BME280;24974;54.444;18.560;2022-09-17T07:17:09;99612.59;;;14.68;70.15
28797;BME280;24974;54.444;18.560;2022-09-17T07:19:40;99619.53;;;14.26;70.15
28797;BME280;24974;54.444;18.560;2022-09-17T07:22:11;99624.78;;;14.47;69.44
28797;BME280;24974;54.444;18.560;2022-09-17T07:24:43;99639.34;;;14.83;68.28
28797;BME280;24974;54.444;18.560;2022-09-17T07:27:14;99624.41;;;15.07;67.71
28797;BME280;24974;54.444;18.560;2022-09-17T07:29:45;99633.25;;;15.13;67.63
28797;BME280;24974;54.444;18.560;2022-09-17T07:32:16;99639.50;;;14.90;68.40
28797;BME280;24974;54.444;18.560;2022-09-17T07:34:47;99640.69;;;15.08;67.73
28797;BME280;24974;54.444;18.560;2022-09-17T07:37:18;99636.06;;;15.35;67.12
28797;BME280;24974;54.444;18.560;2022-09-17T07:39:50;99646.84;;;15.21;67.93
28797;BME280;24974;54.444;18.560;2022-09-17T07:42:21;99648.59;;;15.29;67.19
28797;BME280;24974;54.444;18.560;2022-09-17T07:44:52;99642.38;;;15.78;66.39
28797;BME280;24974;54.444;18.560;2022-09-17T07:47:23;99639.13;;;15.73;66.62
28797;BME280;24974;54.444;18.560;2022-09-17T07:49:54;99643.63;;;15.38;67.48
28797;BME280;24974;54.444;18.560;2022-09-17T07:52:25;99651.19;;;15.84;66.24
28797;BME280;24974;54.444;18.560;2022-09-17T07:54:56;99654.59;;;15.74;66.59
28797;BME280;24974;54.444;18.560;2022-09-17T07:57:27;99663.97;;;16.15;65.16
28797;BME280;24974;54.444;18.560;2022-09-17T07:59:58;99664.50;;;15.98;65.49
28797;BME280;24974;54.444;18.560;2022-09-17T08:02:29;99664.63;;;16.31;64.66
28797;BME280;24974;54.444;18.560;2022-09-17T08:04:59;99666.03;;;15.72;65.96
28797;BME280;24974;54.444;18.560;2022-09-17T08:07:30;99666.41;;;15.51;66.81
28797;BME280;24974;54.444;18.560;2022-09-17T08:10:01;99678.09;;;15.02;68.21
28797;BME280;24974;54.444;18.560;2022-09-17T08:12:32;99672.94;;;15.82;66.59
28797;BME280;24974;54.444;18.560;2022-09-17T08:15:03;99663.06;;;15.84;66.71
28797;BME280;24974;54.444;18.560;2022-09-17T08:17:34;99675.63;;;16.01;65.11
28797;BME280;24974;54.444;18.560;2022-09-17T08:20:07;99666.66;;;16.91;63.62
28797;BME280;24974;54.444;18.560;2022-09-17T08:22:39;99661.13;;;17.24;63.08
28797;BME280;24974;54.444;18.560;2022-09-17T08:25:10;99669.09;;;16.39;64.55
28797;BME280;24974;54.444;18.560;2022-09-17T08:27:41;99657.28;;;16.69;64.39
28797;BME280;24974;54.444;18.560;2022-09-17T08:30:12;99676.03;;;16.79;63.83
28797;BME280;24974;54.444;18.560;2022-09-17T08:32:43;99677.75;;;16.61;64.52
28797;BME280;24974;54.444;18.560;2022-09-17T08:35:13;99688.72;;;16.27;65.98
28797;BME280;24974;54.444;18.560;2022-09-17T08:37:45;99694.84;;;16.66;64.42
28797;BME280;24974;54.444;18.560;2022-09-17T08:40:18;99700.59;;;16.77;64.08
28797;BME280;24974;54.444;18.560;2022-09-17T08:42:54;99697.50;;;16.59;63.96
28797;BME280;24974;54.444;18.560;2022-09-17T08:45:28;99704.28;;;16.85;62.96
28797;BME280;24974;54.444;18.560;2022-09-17T08:48:02;99713.16;;;16.97;62.67
28797;BME280;24974;54.444;18.560;2022-09-17T08:50:35;99694.28;;;17.44;61.58
28797;BME280;24974;54.444;18.560;2022-09-17T08:55:45;99693.91;;;17.12;62.15
28797;BME280;24974;54.444;18.560;2022-09-17T08:58:26;99696.31;;;17.13;61.83
28797;BME280;24974;54.444;18.560;2022-09-17T09:07:20;99698.59;;;17.08;61.17
28797;BME280;24974;54.444;18.560;2022-09-17T09:10:13;99695.34;;;17.66;59.86
28797;BME280;24974;54.444;18.560;2022-09-17T09:12:48;99706.47;;;16.72;62.00
28797;BME280;24974;54.444;18.560;2022-09-17T09:18:00;99697.84;;;17.41;60.47
28797;BME280;24974;54.444;18.560;2022-09-17T09:20:53;99686.75;;;17.11;60.88
28797;BME280;24974;54.444;18.560;2022-09-17T09:23:52;99687.16;;;17.09;60.05
28797;BME280;24974;54.444;18.560;2022-09-17T09:26:59;99682.88;;;17.52;59.08
28797;BME280;24974;54.444;18.560;2022-09-17T09:29:45;99681.91;;;18.15;57.86
28797;BME280;24974;54.444;18.560;2022-09-17T09:32:28;99686.94;;;18.47;56.46
28797;BME280;24974;54.444;18.560;2022-09-17T09:35:15;99685.84;;;18.62;55.97
28797;BME280;24974;54.444;18.560;2022-09-17T09:40:36;99693.97;;;17.49;58.64
28797;BME280;24974;54.444;18.560;2022-09-17T09:43:33;99692.09;;;17.63;58.15
28797;BME280;24974;54.444;18.560;2022-09-17T09:46:28;99682.09;;;19.03;55.70
28797;BME280;24974;54.444;18.560;2022-09-17T09:49:16;99690.91;;;18.46;56.44
28797;BME280;24974;54.444;18.560;2022-09-17T09:57:49;99686.00;;;17.84;57.50
28797;BME280;24974;54.444;18.560;2022-09-17T10:00:36;99675.59;;;17.74;58.29
28797;BME280;24974;54.444;18.560;2022-09-17T10:06:08;99673.25;;;18.83;55.32
28797;BME280;24974;54.444;18.560;2022-09-17T10:08:41;99672.75;;;19.64;52.78
28797;BME280;24974;54.444;18.560;2022-09-17T10:11:25;99679.19;;;20.18;51.43
28797;BME280;24974;54.444;18.560;2022-09-17T10:14:28;99695.06;;;19.57;52.93
28797;BME280;24974;54.444;18.560;2022-09-17T10:17:19;99678.53;;;18.40;54.88
28797;BME280;24974;54.444;18.560;2022-09-17T10:20:12;99684.06;;;18.98;53.86
28797;BME280;24974;54.444;18.560;2022-09-17T10:22:45;99673.28;;;18.86;54.63
28797;BME280;24974;54.444;18.560;2022-09-17T10:25:31;99674.78;;;20.78;49.69
28797;BME280;24974;54.444;18.560;2022-09-17T10:28:04;99667.97;;;22.25;46.01
28797;BME280;24974;54.444;18.560;2022-09-17T10:30:58;99665.50;;;23.10;44.65
28797;BME280;24974;54.444;18.560;2022-09-17T10:33:31;99658.81;;;23.34;43.25
28797;BME280;24974;54.444;18.560;2022-09-17T10:36:07;99682.66;;;21.81;45.88
28797;BME280;24974;54.444;18.560;2022-09-17T10:38:43;99696.31;;;20.59;47.70
28797;BME280;24974;54.444;18.560;2022-09-17T10:41:20;99683.84;;;21.00;46.87
28797;BME280;24974;54.444;18.560;2022-09-17T10:43:51;99700.72;;;20.32;47.39
28797;BME280;24974;54.444;18.560;2022-09-17T10:46:27;99709.03;;;18.77;51.61
28797;BME280;24974;54.444;18.560;2022-09-17T10:52:12;99712.19;;;18.28;53.69
28797;BME280;24974;54.444;18.560;2022-09-17T11:26:37;99754.78;;;14.51;74.18
28797;BME280;24974;54.444;18.560;2022-09-17T11:35:02;99749.28;;;15.41;73.50
28797;BME280;24974;54.444;18.560;2022-09-17T11:37:52;99743.47;;;15.65;72.94
28797;BME280;24974;54.444;18.560;2022-09-17T11:40:35;99739.91;;;16.10;72.49
28797;BME280;24974;54.444;18.560;2022-09-17T11:43:24;99735.22;;;16.87;69.64
28797;BME280;24974;54.444;18.560;2022-09-17T11:48:56;99733.22;;;17.47;68.23
28797;BME280;24974;54.444;18.560;2022-09-17T11:51:36;99720.88;;;17.11;66.75
28797;BME280;24974;54.444;18.560;2022-09-17T11:57:17;99718.31;;;19.06;63.37
28797;BME280;24974;54.444;18.560;2022-09-17T11:59:55;99706.66;;;20.77;59.40
28797;BME280;24974;54.444;18.560;2022-09-17T12:02:51;99715.81;;;21.90;55.90
28797;BME280;24974;54.444;18.560;2022-09-17T12:05:56;99718.78;;;21.58;55.92
28797;BME280;24974;54.444;18.560;2022-09-17T12:08:37;99724.59;;;19.83;60.08
28797;BME280;24974;54.444;18.560;2022-09-17T12:14:08;99725.25;;;18.68;59.10
28797;BME280;24974;54.444;18.560;2022-09-17T12:16:42;99734.00;;;19.43;60.77
28797;BME280;24974;54.444;18.560;2022-09-17T12:19:34;99722.31;;;19.12;58.43
28797;BME280;24974;54.444;18.560;2022-09-17T12:22:16;99727.00;;;20.84;53.93
28797;BME280;24974;54.444;18.560;2022-09-17T12:24:50;99733.00;;;20.86;54.98
28797;BME280;24974;54.444;18.560;2022-09-17T12:27:55;99721.44;;;20.66;57.56
28797;BME280;24974;54.444;18.560;2022-09-17T12:30:37;99732.72;;;19.19;58.44
28797;BME280;24974;54.444;18.560;2022-09-17T12:45:15;99724.13;;;19.60;57.17
28797;BME280;24974;54.444;18.560;2022-09-17T12:59:09;99717.69;;;19.48;56.08
28797;BME280;24974;54.444;18.560;2022-09-17T13:02:01;99717.84;;;20.02;54.59
28797;BME280;24974;54.444;18.560;2022-09-17T13:04:47;99709.69;;;21.25;53.75
28797;BME280;24974;54.444;18.560;2022-09-17T13:14:20;99731.13;;;22.30;49.57
28797;BME280;24974;54.444;18.560;2022-09-17T13:16:33;99722.13;;;21.97;48.25
28797;BME280;24974;54.444;18.560;2022-09-17T13:22:12;99720.00;;;23.39;46.15
28797;BME280;24974;54.444;18.560;2022-09-17T13:24:47;99722.31;;;23.14;47.50
28797;BME280;24974;54.444;18.560;2022-09-17T13:27:31;99731.72;;;22.00;47.43
28797;BME280;24974;54.444;18.560;2022-09-17T13:30:07;99735.25;;;21.31;49.81
28797;BME280;24974;54.444;18.560;2022-09-17T13:38:02;99729.63;;;22.63;47.42
28797;BME280;24974;54.444;18.560;2022-09-17T13:40:35;99733.38;;;23.28;46.84
28797;BME280;24974;54.444;18.560;2022-09-17T13:43:10;99734.97;;;23.90;44.49
28797;BME280;24974;54.444;18.560;2022-09-17T13:46:15;99735.97;;;24.77;44.90
28797;BME280;24974;54.444;18.560;2022-09-17T13:48:49;99736.72;;;24.81;41.79
28797;BME280;24974;54.444;18.560;2022-09-17T13:54:02;99737.47;;;23.20;46.17
28797;BME280;24974;54.444;18.560;2022-09-17T13:57:07;99733.63;;;21.44;49.24
28797;BME280;24974;54.444;18.560;2022-09-17T13:59:55;99742.16;;;20.76;52.44
28797;BME280;24974;54.444;18.560;2022-09-17T14:02:31;99746.53;;;20.09;52.60
28797;BME280;24974;54.444;18.560;2022-09-17T14:05:31;99741.34;;;19.94;53.09
28797;BME280;24974;54.444;18.560;2022-09-17T14:08:22;99755.72;;;20.17;53.79
28797;BME280;24974;54.444;18.560;2022-09-17T14:10:59;99749.22;;;19.63;53.91
28797;BME280;24974;54.444;18.560;2022-09-17T14:13:39;99749.69;;;19.94;52.77
28797;BME280;24974;54.444;18.560;2022-09-17T14:16:31;99759.56;;;19.59;54.30
28797;BME280;24974;54.444;18.560;2022-09-17T14:24:44;99758.13;;;18.59;57.63
28797;BME280;24974;54.444;18.560;2022-09-17T14:30:18;99772.47;;;17.76;58.80
28797;BME280;24974;54.444;18.560;2022-09-17T14:37:59;99784.06;;;17.81;58.65
28797;BME280;24974;54.444;18.560;2022-09-17T14:40:32;99786.69;;;17.71;59.15
28797;BME280;24974;54.444;18.560;2022-09-17T14:43:03;99791.34;;;17.63;59.04
28797;BME280;24974;54.444;18.560;2022-09-17T14:45:41;99775.25;;;17.76;60.52
28797;BME280;24974;54.444;18.560;2022-09-17T14:48:28;99777.34;;;17.22;59.95
28797;BME280;24974;54.444;18.560;2022-09-17T14:56:57;99790.66;;;16.83;61.90
28797;BME280;24974;54.444;18.560;2022-09-17T15:02:35;99780.94;;;16.96;60.66
28797;BME280;24974;54.444;18.560;2022-09-17T15:07:50;99779.22;;;17.45;59.04
28797;BME280;24974;54.444;18.560;2022-09-17T15:10:21;99777.25;;;17.79;58.06
28797;BME280;24974;54.444;18.560;2022-09-17T15:12:52;99769.88;;;17.60;58.78
28797;BME280;24974;54.444;18.560;2022-09-17T15:15:25;99769.53;;;17.99;57.99
28797;BME280;24974;54.444;18.560;2022-09-17T15:17:57;99770.66;;;17.91;57.61
28797;BME280;24974;54.444;18.560;2022-09-17T15:20:28;99771.13;;;18.00;57.78
28797;BME280;24974;54.444;18.560;2022-09-17T15:23:12;99765.91;;;17.95;58.37
28797;BME280;24974;54.444;18.560;2022-09-17T15:25:47;99775.66;;;17.48;59.36
28797;BME280;24974;54.444;18.560;2022-09-17T15:28:38;99766.00;;;18.02;58.59
28797;BME280;24974;54.444;18.560;2022-09-17T15:31:17;99769.56;;;18.02;58.57
28797;BME280;24974;54.444;18.560;2022-09-17T15:33:48;99769.81;;;17.86;59.43
28797;BME280;24974;54.444;18.560;2022-09-17T15:36:22;99779.88;;;17.65;59.33
28797;BME280;24974;54.444;18.560;2022-09-17T15:38:54;99781.47;;;17.36;59.87
28797;BME280;24974;54.444;18.560;2022-09-17T15:41:33;99786.81;;;16.91;61.52
28797;BME280;24974;54.444;18.560;2022-09-17T15:44:19;99790.88;;;16.97;62.31
28797;BME280;24974;54.444;18.560;2022-09-17T15:46:51;99780.00;;;17.15;61.73
28797;BME280;24974;54.444;18.560;2022-09-17T15:52:27;99784.13;;;16.98;62.46
28797;BME280;24974;54.444;18.560;2022-09-17T15:55:01;99782.44;;;16.67;62.91
28797;BME280;24974;54.444;18.560;2022-09-17T15:57:32;99787.44;;;17.08;62.17
28797;BME280;24974;54.444;18.560;2022-09-17T16:00:15;99797.41;;;17.09;62.17
28797;BME280;24974;54.444;18.560;2022-09-17T16:02:46;99791.88;;;17.42;61.00
28797;BME280;24974;54.444;18.560;2022-09-17T16:07:48;99799.19;;;16.97;61.97
28797;BME280;24974;54.444;18.560;2022-09-17T16:10:19;99808.44;;;17.05;61.30
28797;BME280;24974;54.444;18.560;2022-09-17T16:12:50;99800.31;;;17.19;61.32
28797;BME280;24974;54.444;18.560;2022-09-17T16:15:20;99801.44;;;17.45;60.16
28797;BME280;24974;54.444;18.560;2022-09-17T16:17:51;99800.34;;;17.53;60.31
28797;BME280;24974;54.444;18.560;2022-09-17T16:20:23;99802.22;;;17.15;61.50
28797;BME280;24974;54.444;18.560;2022-09-17T16:22:54;99796.88;;;17.29;60.90
28797;BME280;24974;54.444;18.560;2022-09-17T16:25:27;99801.75;;;17.40;61.71
28797;BME280;24974;54.444;18.560;2022-09-17T16:28:02;99796.44;;;17.57;60.27
28797;BME280;24974;54.444;18.560;2022-09-17T16:30:33;99800.59;;;17.11;61.54
28797;BME280;24974;54.444;18.560;2022-09-17T16:33:04;99801.63;;;17.59;59.96
28797;BME280;24974;54.444;18.560;2022-09-17T16:35:36;99801.34;;;17.38;60.93
28797;BME280;24974;54.444;18.560;2022-09-17T16:38:09;99809.63;;;17.34;61.14
28797;BME280;24974;54.444;18.560;2022-09-17T16:40:42;99810.81;;;17.33;61.79
28797;BME280;24974;54.444;18.560;2022-09-17T16:43:13;99811.50;;;16.73;63.67
28797;BME280;24974;54.444;18.560;2022-09-17T16:45:57;99817.44;;;16.98;63.84
28797;BME280;24974;54.444;18.560;2022-09-17T16:48:29;99816.75;;;16.78;65.11
28797;BME280;24974;54.444;18.560;2022-09-17T16:51:06;99819.22;;;16.61;65.29
28797;BME280;24974;54.444;18.560;2022-09-17T16:53:38;99820.56;;;16.25;66.30
28797;BME280;24974;54.444;18.560;2022-09-17T16:56:12;99826.75;;;15.56;68.12
28797;BME280;24974;54.444;18.560;2022-09-17T16:58:43;99827.81;;;15.52;68.30
28797;BME280;24974;54.444;18.560;2022-09-17T17:01:14;99820.66;;;15.31;70.10
28797;BME280;24974;54.444;18.560;2022-09-17T17:03:49;99832.66;;;15.39;69.58
28797;BME280;24974;54.444;18.560;2022-09-17T17:06:21;99831.38;;;15.52;68.41
28797;BME280;24974;54.444;18.560;2022-09-17T17:08:52;99831.13;;;15.77;67.39
28797;BME280;24974;54.444;18.560;2022-09-17T17:11:22;99825.63;;;15.42;68.24
28797;BME280;24974;54.444;18.560;2022-09-17T17:13:54;99836.78;;;15.45;68.66
28797;BME280;24974;54.444;18.560;2022-09-17T17:16:28;99831.75;;;15.51;68.32
28797;BME280;24974;54.444;18.560;2022-09-17T17:18:59;99833.38;;;15.17;68.69
28797;BME280;24974;54.444;18.560;2022-09-17T17:21:30;99842.47;;;15.52;67.56
28797;BME280;24974;54.444;18.560;2022-09-17T17:24:01;99844.41;;;15.68;67.40
28797;BME280;24974;54.444;18.560;2022-09-17T17:26:33;99847.56;;;15.15;69.19
28797;BME280;24974;54.444;18.560;2022-09-17T17:29:03;99848.69;;;15.30;68.48
28797;BME280;24974;54.444;18.560;2022-09-17T17:31:35;99855.56;;;15.36;67.65
28797;BME280;24974;54.444;18.560;2022-09-17T17:34:05;99843.91;;;15.46;67.55
28797;BME280;24974;54.444;18.560;2022-09-17T17:36:36;99855.34;;;15.25;68.03
28797;BME280;24974;54.444;18.560;2022-09-17T17:39:07;99856.41;;;15.21;68.72
28797;BME280;24974;54.444;18.560;2022-09-17T17:41:39;99862.50;;;15.10;68.92
28797;BME280;24974;54.444;18.560;2022-09-17T17:44:10;99856.53;;;15.44;68.04
28797;BME280;24974;54.444;18.560;2022-09-17T17:46:44;99862.75;;;15.05;69.31
28797;BME280;24974;54.444;18.560;2022-09-17T17:49:15;99855.22;;;15.22;68.65
28797;BME280;24974;54.444;18.560;2022-09-17T17:51:47;99855.41;;;15.29;68.67
28797;BME280;24974;54.444;18.560;2022-09-17T17:54:18;99856.50;;;15.24;68.48
28797;BME280;24974;54.444;18.560;2022-09-17T17:56:50;99858.50;;;15.08;69.13
28797;BME280;24974;54.444;18.560;2022-09-17T17:59:22;99852.50;;;15.06;69.46
28797;BME280;24974;54.444;18.560;2022-09-17T18:01:52;99852.72;;;14.66;70.31
28797;BME280;24974;54.444;18.560;2022-09-17T18:04:23;99847.97;;;14.82;69.62
28797;BME280;24974;54.444;18.560;2022-09-17T18:06:54;99844.59;;;14.89;69.93
28797;BME280;24974;54.444;18.560;2022-09-17T18:09:25;99839.66;;;14.98;69.60
28797;BME280;24974;54.444;18.560;2022-09-17T18:11:56;99850.56;;;14.91;69.47
28797;BME280;24974;54.444;18.560;2022-09-17T18:14:27;99851.09;;;14.65;70.36
28797;BME280;24974;54.444;18.560;2022-09-17T18:16:58;99850.41;;;14.52;70.74
28797;BME280;24974;54.444;18.560;2022-09-17T18:19:29;99850.22;;;14.76;70.01
28797;BME280;24974;54.444;18.560;2022-09-17T18:22:00;99842.06;;;14.99;69.15
28797;BME280;24974;54.444;18.560;2022-09-17T18:24:31;99853.50;;;14.82;69.71
28797;BME280;24974;54.444;18.560;2022-09-17T18:27:02;99851.69;;;14.42;71.02
28797;BME280;24974;54.444;18.560;2022-09-17T18:29:33;99858.34;;;14.85;69.46
28797;BME280;24974;54.444;18.560;2022-09-17T18:32:04;99857.72;;;15.27;67.95
28797;BME280;24974;54.444;18.560;2022-09-17T18:34:34;99859.38;;;15.12;68.45
28797;BME280;24974;54.444;18.560;2022-09-17T18:37:06;99859.84;;;14.82;69.29
28797;BME280;24974;54.444;18.560;2022-09-17T18:39:36;99864.06;;;14.61;70.45
28797;BME280;24974;54.444;18.560;2022-09-17T18:42:07;99869.03;;;14.71;69.67
28797;BME280;24974;54.444;18.560;2022-09-17T18:44:38;99866.56;;;14.22;71.30
28797;BME280;24974;54.444;18.560;2022-09-17T18:47:09;99871.09;;;14.74;69.75
28797;BME280;24974;54.444;18.560;2022-09-17T18:49:40;99869.88;;;14.43;70.52
28797;BME280;24974;54.444;18.560;2022-09-17T18:52:11;99874.59;;;14.43;70.73
28797;BME280;24974;54.444;18.560;2022-09-17T18:54:42;99875.03;;;14.13;71.75
28797;BME280;24974;54.444;18.560;2022-09-17T18:57:15;99872.19;;;14.25;71.57
28797;BME280;24974;54.444;18.560;2022-09-17T18:59:46;99858.66;;;14.36;70.94
28797;BME280;24974;54.444;18.560;2022-09-17T19:02:17;99867.53;;;14.14;71.79
28797;BME280;24974;54.444;18.560;2022-09-17T19:04:48;99858.00;;;13.83;72.75
28797;BME280;24974;54.444;18.560;2022-09-17T19:07:18;99862.88;;;14.18;71.58
28797;BME280;24974;54.444;18.560;2022-09-17T19:09:49;99864.84;;;14.17;71.76
28797;BME280;24974;54.444;18.560;2022-09-17T19:12:20;99855.97;;;14.24;71.81
28797;BME280;24974;54.444;18.560;2022-09-17T19:14:51;99866.41;;;14.03;72.06
28797;BME280;24974;54.444;18.560;2022-09-17T19:17:23;99865.50;;;14.42;70.93
28797;BME280;24974;54.444;18.560;2022-09-17T19:19:54;99868.72;;;14.00;71.93
28797;BME280;24974;54.444;18.560;2022-09-17T19:22:25;99867.69;;;14.05;71.94
28797;BME280;24974;54.444;18.560;2022-09-17T19:24:56;99864.16;;;14.20;71.68
28797;BME280;24974;54.444;18.560;2022-09-17T19:27:28;99865.84;;;13.81;72.94
28797;BME280;24974;54.444;18.560;2022-09-17T19:29:59;99855.06;;;13.92;72.56
28797;BME280;24974;54.444;18.560;2022-09-17T19:32:30;99866.13;;;13.64;73.71
28797;BME280;24974;54.444;18.560;2022-09-17T19:35:01;99870.94;;;13.67;73.53
28797;BME280;24974;54.444;18.560;2022-09-17T19:37:32;99865.56;;;14.14;71.87
28797;BME280;24974;54.444;18.560;2022-09-17T19:40:03;99867.72;;;14.21;71.63
28797;BME280;24974;54.444;18.560;2022-09-17T19:42:36;99868.84;;;14.04;71.94
28797;BME280;24974;54.444;18.560;2022-09-17T19:45:07;99866.81;;;14.17;71.83
28797;BME280;24974;54.444;18.560;2022-09-17T19:47:38;99868.09;;;13.91;72.53
28797;BME280;24974;54.444;18.560;2022-09-17T19:50:09;99868.09;;;14.35;71.26
28797;BME280;24974;54.444;18.560;2022-09-17T19:52:40;99871.66;;;13.92;72.51
28797;BME280;24974;54.444;18.560;2022-09-17T19:55:11;99863.25;;;14.16;71.52
28797;BME280;24974;54.444;18.560;2022-09-17T19:57:41;99859.03;;;14.07;71.86
28797;BME280;24974;54.444;18.560;2022-09-17T20:00:13;99866.22;;;14.39;70.70
28797;BME280;24974;54.444;18.560;2022-09-17T20:02:44;99856.66;;;14.21;71.28
28797;BME280;24974;54.444;18.560;2022-09-17T20:05:15;99864.66;;;14.10;71.42
28797;BME280;24974;54.444;18.560;2022-09-17T20:07:46;99867.69;;;14.05;71.67
28797;BME280;24974;54.444;18.560;2022-09-17T20:10:17;99859.94;;;14.11;71.51
28797;BME280;24974;54.444;18.560;2022-09-17T20:12:48;99867.16;;;14.15;71.07
28797;BME280;24974;54.444;18.560;2022-09-17T20:15:19;99862.69;;;14.11;71.21
28797;BME280;24974;54.444;18.560;2022-09-17T20:17:51;99854.97;;;14.32;70.64
28797;BME280;24974;54.444;18.560;2022-09-17T20:20:21;99851.91;;;14.06;71.06
28797;BME280;24974;54.444;18.560;2022-09-17T20:22:57;99859.88;;;13.95;71.45
28797;BME280;24974;54.444;18.560;2022-09-17T20:25:28;99853.56;;;13.94;71.91
28797;BME280;24974;54.444;18.560;2022-09-17T20:27:59;99856.63;;;13.77;72.11
28797;BME280;24974;54.444;18.560;2022-09-17T20:30:33;99851.75;;;14.14;71.10
28797;BME280;24974;54.444;18.560;2022-09-17T20:33:04;99844.16;;;14.11;71.00